sensor_id;sensor_type;location;lat;lon;timestamp;P1;durP1;ratioP1;P2;durP2;ratioP2
2023;SDS011;1016;48.770;9.154;2024-01-11T00:00:28;1002.00;;;928.60;;
2023;SDS011;1016;48.770;9.154;2024-01-11T00:02:54;983.40;;;912.10;;
2023;SDS011;1016;48.770;9.154;2024-01-11T00:05:20;1000.93;;;927.77;;
2023;SDS011;1016;48.770;9.154;2024-01-11T00:07:48;1025.85;;;949.30;;
2023;SDS011;1016;48.770;9.154;2024-01-11T00:10:15;988.17;;;916.65;;
2023;SDS011;1016;48.770;9.154;2024-01-11T00:12:41;991.03;;;918.65;;
2023;SDS011;1016;48.770;9.154;2024-01-11T00:15:07;1007.25;;;934.35;;
2023;SDS011;1016;48.770;9.154;2024-01-11T00:17:33;1039.47;;;962.10;;
2023;SDS011;1016;48.770;9.154;2024-01-11T00:20:00;1056.20;;;976.77;;
2023;SDS011;1016;48.770;9.154;2024-01-11T00:22:26;1041.40;;;963.47;;
2023;SDS011;1016;48.770;9.154;2024-01-11T00:24:52;1038.72;;;960.83;;
2023;SDS011;1016;48.770;9.154;2024-01-11T00:27:18;1034.18;;;956.42;;
2023;SDS011;1016;48.770;9.154;2024-01-11T00:29:44;1055.95;;;975.85;;
2023;SDS011;1016;48.770;9.154;2024-01-11T00:32:10;1079.07;;;994.90;;
2023;SDS011;1016;48.770;9.154;2024-01-11T00:34:36;1053.90;;;972.20;;
2023;SDS011;1016;48.770;9.154;2024-01-11T00:37:02;1060.55;;;979.92;;
2023;SDS011;1016;48.770;9.154;2024-01-11T00:39:28;1081.88;;;998.78;;
2023;SDS011;1016;48.770;9.154;2024-01-11T00:41:54;1076.90;;;993.33;;
2023;SDS011;1016;48.770;9.154;2024-01-11T00:44:20;1085.30;;;999.90;;
2023;SDS011;1016;48.770;9.154;2024-01-11T00:46:46;1067.13;;;985.53;;
2023;SDS011;1016;48.770;9.154;2024-01-11T00:49:12;1076.38;;;994.88;;
2023;SDS011;1016;48.770;9.154;2024-01-11T00:51:38;1076.20;;;991.90;;
2023;SDS011;1016;48.770;9.154;2024-01-11T00:54:03;1099.00;;;999.90;;
2023;SDS011;1016;48.770;9.154;2024-01-11T00:56:29;1082.97;;;998.13;;
2023;SDS011;1016;48.770;9.154;2024-01-11T00:58:55;1082.80;;;998.13;;
2023;SDS011;1016;48.770;9.154;2024-01-11T01:01:21;1081.50;;;997.17;;
2023;SDS011;1016;48.770;9.154;2024-01-11T01:03:47;1073.50;;;990.08;;
2023;SDS011;1016;48.770;9.154;2024-01-11T01:06:13;1070.65;;;986.90;;
2023;SDS011;1016;48.770;9.154;2024-01-11T01:08:38;1093.13;;;999.90;;
2023;SDS011;1016;48.770;9.154;2024-01-11T01:11:04;1090.47;;;999.90;;
2023;SDS011;1016;48.770;9.154;2024-01-11T01:13:30;1102.70;;;999.90;;
2023;SDS011;1016;48.770;9.154;2024-01-11T01:15:56;1107.35;;;999.90;;
2023;SDS011;1016;48.770;9.154;2024-01-11T01:18:21;1126.30;;;999.90;;
2023;SDS011;1016;48.770;9.154;2024-01-11T01:20:47;1125.63;;;999.90;;
2023;SDS011;1016;48.770;9.154;2024-01-11T01:23:13;1132.80;;;999.90;;
2023;SDS011;1016;48.770;9.154;2024-01-11T01:25:39;1115.22;;;999.90;;
2023;SDS011;1016;48.770;9.154;2024-01-11T01:28:04;1130.72;;;999.90;;
2023;SDS011;1016;48.770;9.154;2024-01-11T01:30:30;1142.95;;;999.90;;
2023;SDS011;1016;48.770;9.154;2024-01-11T01:32:56;1127.97;;;999.90;;
2023;SDS011;1016;48.770;9.154;2024-01-11T01:35:22;1111.22;;;999.90;;
2023;SDS011;1016;48.770;9.154;2024-01-11T01:37:47;1130.35;;;999.90;;
2023;SDS011;1016;48.770;9.154;2024-01-11T01:40:14;1098.07;;;999.90;;
2023;SDS011;1016;48.770;9.154;2024-01-11T01:42:43;1117.90;;;999.90;;
2023;SDS011;1016;48.770;9.154;2024-01-11T01:45:09;1102.65;;;999.90;;
2023;SDS011;1016;48.770;9.154;2024-01-11T01:47:35;1124.47;;;999.90;;
2023;SDS011;1016;48.770;9.154;2024-01-11T01:50:09;1135.22;;;999.90;;
2023;SDS011;1016;48.770;9.154;2024-01-11T01:52:36;1140.72;;;999.90;;
2023;SDS011;1016;48.770;9.154;2024-01-11T01:55:05;1117.07;;;999.90;;
2023;SDS011;1016;48.770;9.154;2024-01-11T01:57:34;1126.53;;;999.90;;
2023;SDS011;1016;48.770;9.154;2024-01-11T02:00:01;1126.22;;;999.90;;
2023;SDS011;1016;48.770;9.154;2024-01-11T02:02:27;1088.43;;;999.90;;
2023;SDS011;1016;48.770;9.154;2024-01-11T02:04:55;1112.07;;;999.90;;
2023;SDS011;1016;48.770;9.154;2024-01-11T02:07:22;1134.87;;;999.90;;
2023;SDS011;1016;48.770;9.154;2024-01-11T02:09:49;1112.30;;;999.90;;
2023;SDS011;1016;48.770;9.154;2024-01-11T02:12:15;1131.50;;;999.90;;
2023;SDS011;1016;48.770;9.154;2024-01-11T02:14:42;1129.25;;;999.90;;
2023;SDS011;1016;48.770;9.154;2024-01-11T02:17:08;1102.95;;;999.90;;
2023;SDS011;1016;48.770;9.154;2024-01-11T02:19:34;1132.43;;;999.90;;
2023;SDS011;1016;48.770;9.154;2024-01-11T02:22:00;1128.15;;;999.90;;
2023;SDS011;1016;48.770;9.154;2024-01-11T02:24:31;1112.65;;;999.90;;
2023;SDS011;1016;48.770;9.154;2024-01-11T02:27:00;1123.00;;;999.90;;
2023;SDS011;1016;48.770;9.154;2024-01-11T02:29:28;1132.47;;;999.90;;
2023;SDS011;1016;48.770;9.154;2024-01-11T02:31:56;1125.20;;;999.90;;
2023;SDS011;1016;48.770;9.154;2024-01-11T02:34:23;1137.88;;;999.90;;
2023;SDS011;1016;48.770;9.154;2024-01-11T02:36:49;1163.20;;;999.90;;
2023;SDS011;1016;48.770;9.154;2024-01-11T02:39:16;1146.43;;;999.90;;
2023;SDS011;1016;48.770;9.154;2024-01-11T02:41:44;1144.45;;;999.90;;
2023;SDS011;1016;48.770;9.154;2024-01-11T02:44:10;1164.28;;;999.90;;
2023;SDS011;1016;48.770;9.154;2024-01-11T02:46:36;1151.93;;;999.90;;
2023;SDS011;1016;48.770;9.154;2024-01-11T02:49:02;1139.07;;;999.90;;
2023;SDS011;1016;48.770;9.154;2024-01-11T02:51:28;1150.23;;;999.90;;
2023;SDS011;1016;48.770;9.154;2024-01-11T02:53:53;1138.33;;;999.90;;
2023;SDS011;1016;48.770;9.154;2024-01-11T02:56:19;1155.00;;;999.90;;
2023;SDS011;1016;48.770;9.154;2024-01-11T02:58:45;1145.83;;;999.90;;
2023;SDS011;1016;48.770;9.154;2024-01-11T03:01:11;1159.95;;;999.90;;
2023;SDS011;1016;48.770;9.154;2024-01-11T03:03:36;1142.30;;;999.90;;
2023;SDS011;1016;48.770;9.154;2024-01-11T03:06:02;1144.57;;;999.90;;
2023;SDS011;1016;48.770;9.154;2024-01-11T03:08:28;1140.75;;;999.90;;
2023;SDS011;1016;48.770;9.154;2024-01-11T03:10:54;1164.18;;;999.90;;
2023;SDS011;1016;48.770;9.154;2024-01-11T03:13:20;1122.60;;;999.90;;
2023;SDS011;1016;48.770;9.154;2024-01-11T03:15:46;1151.30;;;999.90;;
2023;SDS011;1016;48.770;9.154;2024-01-11T03:18:11;1137.35;;;999.90;;
2023;SDS011;1016;48.770;9.154;2024-01-11T03:20:37;1157.22;;;999.90;;
2023;SDS011;1016;48.770;9.154;2024-01-11T03:23:03;1154.90;;;999.90;;
2023;SDS011;1016;48.770;9.154;2024-01-11T03:25:29;1148.67;;;999.90;;
2023;SDS011;1016;48.770;9.154;2024-01-11T03:27:55;1158.03;;;999.90;;
2023;SDS011;1016;48.770;9.154;2024-01-11T03:30:20;1156.80;;;999.90;;
2023;SDS011;1016;48.770;9.154;2024-01-11T03:32:46;1158.33;;;999.90;;
2023;SDS011;1016;48.770;9.154;2024-01-11T03:35:12;1147.73;;;999.90;;
2023;SDS011;1016;48.770;9.154;2024-01-11T03:37:38;1163.67;;;999.90;;
2023;SDS011;1016;48.770;9.154;2024-01-11T03:40:04;1157.22;;;999.90;;
2023;SDS011;1016;48.770;9.154;2024-01-11T03:42:30;1139.90;;;999.90;;
2023;SDS011;1016;48.770;9.154;2024-01-11T03:44:56;1151.07;;;999.90;;
2023;SDS011;1016;48.770;9.154;2024-01-11T03:47:21;1119.90;;;999.90;;
2023;SDS011;1016;48.770;9.154;2024-01-11T03:49:47;1130.23;;;999.90;;
2023;SDS011;1016;48.770;9.154;2024-01-11T03:52:13;1125.90;;;999.90;;
2023;SDS011;1016;48.770;9.154;2024-01-11T03:54:39;1102.32;;;999.90;;
2023;SDS011;1016;48.770;9.154;2024-01-11T03:57:05;1159.03;;;999.90;;
2023;SDS011;1016;48.770;9.154;2024-01-11T03:59:31;1135.10;;;999.90;;
2023;SDS011;1016;48.770;9.154;2024-01-11T04:01:57;1154.65;;;999.90;;
2023;SDS011;1016;48.770;9.154;2024-01-11T04:04:23;1121.82;;;999.90;;
2023;SDS011;1016;48.770;9.154;2024-01-11T04:06:49;1138.10;;;999.90;;
2023;SDS011;1016;48.770;9.154;2024-01-11T04:09:16;1154.20;;;999.90;;
2023;SDS011;1016;48.770;9.154;2024-01-11T04:11:41;1133.70;;;999.90;;
2023;SDS011;1016;48.770;9.154;2024-01-11T04:14:07;1128.80;;;999.90;;
2023;SDS011;1016;48.770;9.154;2024-01-11T04:16:33;1140.00;;;999.90;;
2023;SDS011;1016;48.770;9.154;2024-01-11T04:18:59;1130.30;;;999.90;;
2023;SDS011;1016;48.770;9.154;2024-01-11T04:21:25;1119.60;;;999.90;;
2023;SDS011;1016;48.770;9.154;2024-01-11T04:23:55;1141.93;;;999.90;;
2023;SDS011;1016;48.770;9.154;2024-01-11T04:26:21;1148.57;;;999.90;;
2023;SDS011;1016;48.770;9.154;2024-01-11T04:28:47;1148.50;;;999.90;;
2023;SDS011;1016;48.770;9.154;2024-01-11T04:31:14;1125.32;;;999.90;;
2023;SDS011;1016;48.770;9.154;2024-01-11T04:33:42;1139.13;;;999.90;;
2023;SDS011;1016;48.770;9.154;2024-01-11T04:36:11;1118.00;;;999.90;;
2023;SDS011;1016;48.770;9.154;2024-01-11T04:38:38;1133.33;;;999.90;;
2023;SDS011;1016;48.770;9.154;2024-01-11T04:41:07;1166.13;;;999.90;;
2023;SDS011;1016;48.770;9.154;2024-01-11T04:43:35;1146.20;;;999.90;;
2023;SDS011;1016;48.770;9.154;2024-01-11T04:46:12;1144.60;;;999.90;;
2023;SDS011;1016;48.770;9.154;2024-01-11T04:48:50;1127.78;;;999.90;;
2023;SDS011;1016;48.770;9.154;2024-01-11T04:51:17;1114.90;;;999.90;;
2023;SDS011;1016;48.770;9.154;2024-01-11T04:53:44;1154.07;;;999.90;;
2023;SDS011;1016;48.770;9.154;2024-01-11T04:56:11;1132.05;;;999.90;;
2023;SDS011;1016;48.770;9.154;2024-01-11T04:58:39;1129.78;;;999.90;;
2023;SDS011;1016;48.770;9.154;2024-01-11T05:01:06;1144.63;;;999.90;;
2023;SDS011;1016;48.770;9.154;2024-01-11T05:03:32;1135.95;;;999.90;;
2023;SDS011;1016;48.770;9.154;2024-01-11T05:05:58;1142.13;;;999.90;;
2023;SDS011;1016;48.770;9.154;2024-01-11T05:08:25;1154.07;;;999.90;;
2023;SDS011;1016;48.770;9.154;2024-01-11T05:10:51;1146.93;;;999.90;;
2023;SDS011;1016;48.770;9.154;2024-01-11T05:13:17;1152.63;;;999.90;;
2023;SDS011;1016;48.770;9.154;2024-01-11T05:15:43;1133.72;;;999.90;;
2023;SDS011;1016;48.770;9.154;2024-01-11T05:18:09;1134.22;;;999.90;;
2023;SDS011;1016;48.770;9.154;2024-01-11T05:20:35;1147.17;;;999.90;;
2023;SDS011;1016;48.770;9.154;2024-01-11T05:23:01;1150.68;;;999.90;;
2023;SDS011;1016;48.770;9.154;2024-01-11T05:25:27;1150.22;;;999.90;;
2023;SDS011;1016;48.770;9.154;2024-01-11T05:27:53;1143.22;;;999.90;;
2023;SDS011;1016;48.770;9.154;2024-01-11T05:30:19;1163.23;;;999.90;;
2023;SDS011;1016;48.770;9.154;2024-01-11T05:32:47;1352.22;;;999.90;;
2023;SDS011;1016;48.770;9.154;2024-01-11T05:35:16;1999.90;;;999.90;;
2023;SDS011;1016;48.770;9.154;2024-01-11T05:37:42;1999.90;;;999.90;;
2023;SDS011;1016;48.770;9.154;2024-01-11T05:40:15;1999.90;;;999.90;;
2023;SDS011;1016;48.770;9.154;2024-01-11T05:42:44;1999.90;;;999.90;;
2023;SDS011;1016;48.770;9.154;2024-01-11T05:45:15;1999.90;;;999.90;;
2023;SDS011;1016;48.770;9.154;2024-01-11T05:47:44;1999.90;;;999.90;;
2023;SDS011;1016;48.770;9.154;2024-01-11T05:50:20;973.77;;;890.10;;
2023;SDS011;1016;48.770;9.154;2024-01-11T05:52:51;1148.10;;;999.90;;
2023;SDS011;1016;48.770;9.154;2024-01-11T05:55:21;1163.43;;;999.90;;
2023;SDS011;1016;48.770;9.154;2024-01-11T05:57:46;1163.03;;;999.90;;
2023;SDS011;1016;48.770;9.154;2024-01-11T06:00:12;1169.93;;;999.90;;
2023;SDS011;1016;48.770;9.154;2024-01-11T06:02:39;1157.30;;;999.90;;
2023;SDS011;1016;48.770;9.154;2024-01-11T06:05:08;1152.78;;;999.90;;
2023;SDS011;1016;48.770;9.154;2024-01-11T06:07:35;1161.40;;;999.90;;
2023;SDS011;1016;48.770;9.154;2024-01-11T06:10:01;1150.43;;;999.90;;
2023;SDS011;1016;48.770;9.154;2024-01-11T06:12:28;1161.18;;;999.90;;
2023;SDS011;1016;48.770;9.154;2024-01-11T06:14:54;1999.90;;;999.90;;
2023;SDS011;1016;48.770;9.154;2024-01-11T06:17:19;1496.63;;;810.77;;
2023;SDS011;1016;48.770;9.154;2024-01-11T06:19:45;1999.90;;;999.90;;
2023;SDS011;1016;48.770;9.154;2024-01-11T06:22:11;1999.90;;;999.90;;
2023;SDS011;1016;48.770;9.154;2024-01-11T06:24:37;1999.90;;;999.90;;
2023;SDS011;1016;48.770;9.154;2024-01-11T06:27:02;1999.90;;;999.90;;
2023;SDS011;1016;48.770;9.154;2024-01-11T06:29:28;1999.90;;;999.90;;
2023;SDS011;1016;48.770;9.154;2024-01-11T06:31:54;1999.90;;;999.90;;
2023;SDS011;1016;48.770;9.154;2024-01-11T06:34:20;1021.40;;;933.40;;
2023;SDS011;1016;48.770;9.154;2024-01-11T06:36:45;1999.90;;;999.90;;
2023;SDS011;1016;48.770;9.154;2024-01-11T06:39:11;1999.90;;;999.90;;
2023;SDS011;1016;48.770;9.154;2024-01-11T06:41:37;1999.90;;;999.90;;
2023;SDS011;1016;48.770;9.154;2024-01-11T06:44:04;1999.90;;;999.90;;
2023;SDS011;1016;48.770;9.154;2024-01-11T06:46:29;1999.90;;;999.90;;
2023;SDS011;1016;48.770;9.154;2024-01-11T06:48:55;1999.90;;;999.90;;
2023;SDS011;1016;48.770;9.154;2024-01-11T06:51:21;1346.68;;;813.33;;
2023;SDS011;1016;48.770;9.154;2024-01-11T06:53:48;1111.65;;;999.90;;
2023;SDS011;1016;48.770;9.154;2024-01-11T06:56:18;1157.85;;;999.90;;
2023;SDS011;1016;48.770;9.154;2024-01-11T06:58:45;1171.05;;;999.90;;
2023;SDS011;1016;48.770;9.154;2024-01-11T07:01:11;1150.65;;;999.90;;
2023;SDS011;1016;48.770;9.154;2024-01-11T07:03:40;1335.80;;;999.90;;
2023;SDS011;1016;48.770;9.154;2024-01-11T07:06:06;1999.90;;;999.90;;
2023;SDS011;1016;48.770;9.154;2024-01-11T07:08:32;1999.90;;;999.90;;
2023;SDS011;1016;48.770;9.154;2024-01-11T07:10:59;1999.90;;;999.90;;
2023;SDS011;1016;48.770;9.154;2024-01-11T07:13:27;1999.90;;;999.90;;
2023;SDS011;1016;48.770;9.154;2024-01-11T07:15:53;1999.90;;;999.90;;
2023;SDS011;1016;48.770;9.154;2024-01-11T07:18:20;1999.90;;;999.90;;
2023;SDS011;1016;48.770;9.154;2024-01-11T07:20:46;1999.90;;;999.90;;
2023;SDS011;1016;48.770;9.154;2024-01-11T07:23:13;1999.90;;;999.90;;
2023;SDS011;1016;48.770;9.154;2024-01-11T07:25:39;1999.90;;;999.90;;
2023;SDS011;1016;48.770;9.154;2024-01-11T07:28:06;1999.90;;;999.90;;
2023;SDS011;1016;48.770;9.154;2024-01-11T07:30:32;1999.90;;;999.90;;
2023;SDS011;1016;48.770;9.154;2024-01-11T07:32:58;1999.90;;;999.90;;
2023;SDS011;1016;48.770;9.154;2024-01-11T07:35:24;1999.90;;;999.90;;
2023;SDS011;1016;48.770;9.154;2024-01-11T07:37:50;1999.90;;;999.90;;
2023;SDS011;1016;48.770;9.154;2024-01-11T07:40:16;1999.90;;;999.90;;
2023;SDS011;1016;48.770;9.154;2024-01-11T07:42:42;1999.90;;;999.90;;
2023;SDS011;1016;48.770;9.154;2024-01-11T07:45:08;1999.90;;;999.90;;
2023;SDS011;1016;48.770;9.154;2024-01-11T07:47:39;1999.90;;;999.90;;
2023;SDS011;1016;48.770;9.154;2024-01-11T07:50:06;1999.90;;;999.90;;
2023;SDS011;1016;48.770;9.154;2024-01-11T07:52:33;1999.90;;;999.90;;
2023;SDS011;1016;48.770;9.154;2024-01-11T07:54:58;1999.90;;;999.90;;
2023;SDS011;1016;48.770;9.154;2024-01-11T07:57:34;1999.90;;;999.90;;
2023;SDS011;1016;48.770;9.154;2024-01-11T08:00:03;1999.90;;;999.90;;
2023;SDS011;1016;48.770;9.154;2024-01-11T08:02:31;1999.90;;;999.90;;
2023;SDS011;1016;48.770;9.154;2024-01-11T08:04:57;1999.90;;;999.90;;
2023;SDS011;1016;48.770;9.154;2024-01-11T08:07:24;1999.90;;;999.90;;
2023;SDS011;1016;48.770;9.154;2024-01-11T08:09:51;1999.90;;;999.90;;
2023;SDS011;1016;48.770;9.154;2024-01-11T08:12:16;1999.90;;;999.90;;
2023;SDS011;1016;48.770;9.154;2024-01-11T08:14:42;1999.90;;;999.90;;
2023;SDS011;1016;48.770;9.154;2024-01-11T08:17:08;1999.90;;;999.90;;
2023;SDS011;1016;48.770;9.154;2024-01-11T08:19:34;1152.32;;;844.88;;
2023;SDS011;1016;48.770;9.154;2024-01-11T08:22:00;1395.90;;;858.88;;
2023;SDS011;1016;48.770;9.154;2024-01-11T08:24:25;1999.90;;;999.90;;
2023;SDS011;1016;48.770;9.154;2024-01-11T08:26:51;1999.90;;;999.90;;
2023;SDS011;1016;48.770;9.154;2024-01-11T08:29:17;1999.90;;;999.90;;
2023;SDS011;1016;48.770;9.154;2024-01-11T08:31:45;1999.90;;;999.90;;
2023;SDS011;1016;48.770;9.154;2024-01-11T08:34:10;1999.90;;;999.90;;
2023;SDS011;1016;48.770;9.154;2024-01-11T08:36:36;1999.90;;;999.90;;
2023;SDS011;1016;48.770;9.154;2024-01-11T08:39:04;1999.90;;;999.90;;
2023;SDS011;1016;48.770;9.154;2024-01-11T08:41:36;1999.90;;;999.90;;
2023;SDS011;1016;48.770;9.154;2024-01-11T08:44:05;1999.90;;;999.90;;
2023;SDS011;1016;48.770;9.154;2024-01-11T08:46:31;1402.30;;;864.42;;
2023;SDS011;1016;48.770;9.154;2024-01-11T08:49:00;1999.90;;;999.90;;
2023;SDS011;1016;48.770;9.154;2024-01-11T08:51:28;1999.90;;;999.90;;
2023;SDS011;1016;48.770;9.154;2024-01-11T08:53:54;1999.90;;;999.90;;
2023;SDS011;1016;48.770;9.154;2024-01-11T08:56:20;1436.20;;;897.22;;
2023;SDS011;1016;48.770;9.154;2024-01-11T08:58:47;1999.90;;;999.90;;
2023;SDS011;1016;48.770;9.154;2024-01-11T09:01:13;1999.90;;;999.90;;
2023;SDS011;1016;48.770;9.154;2024-01-11T09:03:43;1999.90;;;999.90;;
2023;SDS011;1016;48.770;9.154;2024-01-11T09:06:09;1283.70;;;753.45;;
2023;SDS011;1016;48.770;9.154;2024-01-11T09:08:35;1999.90;;;999.90;;
2023;SDS011;1016;48.770;9.154;2024-01-11T09:11:02;1999.90;;;999.90;;
2023;SDS011;1016;48.770;9.154;2024-01-11T09:13:28;1999.90;;;999.90;;
2023;SDS011;1016;48.770;9.154;2024-01-11T09:15:54;1999.90;;;999.90;;
2023;SDS011;1016;48.770;9.154;2024-01-11T09:18:20;1999.90;;;999.90;;
2023;SDS011;1016;48.770;9.154;2024-01-11T09:20:46;1999.90;;;999.90;;
2023;SDS011;1016;48.770;9.154;2024-01-11T09:23:12;1999.90;;;999.90;;
2023;SDS011;1016;48.770;9.154;2024-01-11T09:25:38;1999.90;;;999.90;;
2023;SDS011;1016;48.770;9.154;2024-01-11T09:28:05;1999.90;;;999.90;;
2023;SDS011;1016;48.770;9.154;2024-01-11T09:30:31;1999.90;;;999.90;;
2023;SDS011;1016;48.770;9.154;2024-01-11T09:32:57;1999.90;;;999.90;;
2023;SDS011;1016;48.770;9.154;2024-01-11T09:35:23;1999.90;;;999.90;;
2023;SDS011;1016;48.770;9.154;2024-01-11T09:37:49;1999.90;;;999.90;;
2023;SDS011;1016;48.770;9.154;2024-01-11T09:40:16;1999.90;;;999.90;;
2023;SDS011;1016;48.770;9.154;2024-01-11T09:42:43;1999.90;;;999.90;;
2023;SDS011;1016;48.770;9.154;2024-01-11T09:45:17;1999.90;;;999.90;;
2023;SDS011;1016;48.770;9.154;2024-01-11T09:47:44;1640.95;;;876.72;;
2023;SDS011;1016;48.770;9.154;2024-01-11T09:50:14;1197.85;;;887.33;;
2023;SDS011;1016;48.770;9.154;2024-01-11T09:52:44;1283.55;;;966.72;;
2023;SDS011;1016;48.770;9.154;2024-01-11T09:55:12;1165.80;;;999.90;;
2023;SDS011;1016;48.770;9.154;2024-01-11T09:57:39;1154.67;;;999.90;;
2023;SDS011;1016;48.770;9.154;2024-01-11T10:00:09;1167.80;;;999.90;;
2023;SDS011;1016;48.770;9.154;2024-01-11T10:02:37;1148.53;;;999.90;;
2023;SDS011;1016;48.770;9.154;2024-01-11T10:05:03;1156.10;;;999.90;;
2023;SDS011;1016;48.770;9.154;2024-01-11T10:07:30;1174.35;;;999.90;;
2023;SDS011;1016;48.770;9.154;2024-01-11T10:09:59;1170.30;;;999.90;;
2023;SDS011;1016;48.770;9.154;2024-01-11T10:12:26;1139.43;;;999.90;;
2023;SDS011;1016;48.770;9.154;2024-01-11T10:14:52;1140.55;;;999.90;;
2023;SDS011;1016;48.770;9.154;2024-01-11T10:17:19;1177.25;;;999.90;;
2023;SDS011;1016;48.770;9.154;2024-01-11T10:19:50;1133.35;;;999.90;;
2023;SDS011;1016;48.770;9.154;2024-01-11T10:22:17;1127.45;;;999.90;;
2023;SDS011;1016;48.770;9.154;2024-01-11T10:24:45;1154.57;;;999.90;;
2023;SDS011;1016;48.770;9.154;2024-01-11T10:27:11;1153.25;;;999.90;;
2023;SDS011;1016;48.770;9.154;2024-01-11T10:29:39;1183.72;;;999.90;;
2023;SDS011;1016;48.770;9.154;2024-01-11T10:32:05;1176.82;;;999.90;;
2023;SDS011;1016;48.770;9.154;2024-01-11T10:34:31;1184.57;;;999.90;;
2023;SDS011;1016;48.770;9.154;2024-01-11T10:36:58;1193.80;;;999.90;;
2023;SDS011;1016;48.770;9.154;2024-01-11T10:39:25;1179.30;;;999.90;;
2023;SDS011;1016;48.770;9.154;2024-01-11T10:41:52;1158.60;;;999.90;;
2023;SDS011;1016;48.770;9.154;2024-01-11T10:44:27;1149.55;;;999.90;;
2023;SDS011;1016;48.770;9.154;2024-01-11T10:47:00;1153.07;;;999.90;;
2023;SDS011;1016;48.770;9.154;2024-01-11T10:49:28;1154.20;;;999.90;;
2023;SDS011;1016;48.770;9.154;2024-01-11T10:51:59;1152.78;;;999.90;;
2023;SDS011;1016;48.770;9.154;2024-01-11T10:54:28;1197.50;;;999.90;;
2023;SDS011;1016;48.770;9.154;2024-01-11T10:56:56;1191.97;;;999.90;;
2023;SDS011;1016;48.770;9.154;2024-01-11T10:59:30;1163.60;;;999.90;;
2023;SDS011;1016;48.770;9.154;2024-01-11T11:02:05;1203.57;;;999.90;;
2023;SDS011;1016;48.770;9.154;2024-01-11T11:04:38;1202.82;;;999.90;;
2023;SDS011;1016;48.770;9.154;2024-01-11T11:07:05;1179.38;;;999.90;;
2023;SDS011;1016;48.770;9.154;2024-01-11T11:09:34;1180.47;;;999.90;;
2023;SDS011;1016;48.770;9.154;2024-01-11T11:12:00;1198.55;;;999.90;;
2023;SDS011;1016;48.770;9.154;2024-01-11T11:14:28;1156.35;;;999.90;;
2023;SDS011;1016;48.770;9.154;2024-01-11T11:16:57;1164.97;;;999.90;;
2023;SDS011;1016;48.770;9.154;2024-01-11T11:19:24;1161.15;;;999.90;;
2023;SDS011;1016;48.770;9.154;2024-01-11T11:21:50;1166.88;;;999.90;;
2023;SDS011;1016;48.770;9.154;2024-01-11T11:24:16;1174.40;;;999.90;;
2023;SDS011;1016;48.770;9.154;2024-01-11T11:26:42;1184.70;;;999.90;;
2023;SDS011;1016;48.770;9.154;2024-01-11T11:29:08;1191.68;;;999.90;;
2023;SDS011;1016;48.770;9.154;2024-01-11T11:31:38;1182.03;;;999.90;;
2023;SDS011;1016;48.770;9.154;2024-01-11T11:34:14;1170.18;;;999.90;;
2023;SDS011;1016;48.770;9.154;2024-01-11T11:36:40;1193.70;;;999.90;;
2023;SDS011;1016;48.770;9.154;2024-01-11T11:39:10;1158.97;;;999.90;;
2023;SDS011;1016;48.770;9.154;2024-01-11T11:41:38;1196.25;;;999.90;;
2023;SDS011;1016;48.770;9.154;2024-01-11T11:44:14;1193.43;;;999.90;;
2023;SDS011;1016;48.770;9.154;2024-01-11T11:46:41;1170.20;;;999.90;;
2023;SDS011;1016;48.770;9.154;2024-01-11T11:49:10;1170.60;;;999.90;;
2023;SDS011;1016;48.770;9.154;2024-01-11T11:51:38;1154.57;;;999.90;;
2023;SDS011;1016;48.770;9.154;2024-01-11T11:54:06;1189.25;;;999.90;;
2023;SDS011;1016;48.770;9.154;2024-01-11T11:56:35;1205.40;;;999.90;;
2023;SDS011;1016;48.770;9.154;2024-01-11T11:59:02;1181.20;;;999.90;;
2023;SDS011;1016;48.770;9.154;2024-01-11T12:01:28;1191.30;;;999.90;;
2023;SDS011;1016;48.770;9.154;2024-01-11T12:03:57;1172.60;;;999.90;;
2023;SDS011;1016;48.770;9.154;2024-01-11T12:06:23;1184.88;;;999.90;;
2023;SDS011;1016;48.770;9.154;2024-01-11T12:08:52;1167.05;;;999.90;;
2023;SDS011;1016;48.770;9.154;2024-01-11T12:11:20;1206.50;;;999.90;;
2023;SDS011;1016;48.770;9.154;2024-01-11T12:13:47;1201.23;;;999.90;;
2023;SDS011;1016;48.770;9.154;2024-01-11T12:16:14;1195.80;;;999.90;;
2023;SDS011;1016;48.770;9.154;2024-01-11T12:18:40;1187.72;;;999.90;;
2023;SDS011;1016;48.770;9.154;2024-01-11T12:21:07;1189.78;;;999.90;;
2023;SDS011;1016;48.770;9.154;2024-01-11T12:23:37;1178.47;;;999.90;;
2023;SDS011;1016;48.770;9.154;2024-01-11T12:26:05;1202.33;;;999.90;;
2023;SDS011;1016;48.770;9.154;2024-01-11T12:28:36;1200.00;;;999.90;;
2023;SDS011;1016;48.770;9.154;2024-01-11T12:31:03;1183.23;;;999.90;;
2023;SDS011;1016;48.770;9.154;2024-01-11T12:33:29;1148.30;;;999.90;;
2023;SDS011;1016;48.770;9.154;2024-01-11T12:35:55;1154.05;;;999.90;;
2023;SDS011;1016;48.770;9.154;2024-01-11T12:38:23;1232.97;;;999.90;;
2023;SDS011;1016;48.770;9.154;2024-01-11T12:40:48;1177.38;;;999.90;;
2023;SDS011;1016;48.770;9.154;2024-01-11T12:43:15;1165.45;;;999.90;;
2023;SDS011;1016;48.770;9.154;2024-01-11T12:45:41;1213.97;;;999.90;;
2023;SDS011;1016;48.770;9.154;2024-01-11T12:48:07;1163.90;;;999.90;;
2023;SDS011;1016;48.770;9.154;2024-01-11T12:50:34;1176.00;;;999.90;;
2023;SDS011;1016;48.770;9.154;2024-01-11T12:55:49;1168.57;;;999.90;;
2023;SDS011;1016;48.770;9.154;2024-01-11T12:58:36;1212.43;;;999.90;;
2023;SDS011;1016;48.770;9.154;2024-01-11T13:01:03;1189.80;;;999.90;;
2023;SDS011;1016;48.770;9.154;2024-01-11T13:03:30;1163.82;;;999.90;;
2023;SDS011;1016;48.770;9.154;2024-01-11T13:05:58;1175.28;;;999.90;;
2023;SDS011;1016;48.770;9.154;2024-01-11T13:08:24;1165.05;;;999.90;;
2023;SDS011;1016;48.770;9.154;2024-01-11T13:10:54;1137.15;;;999.90;;
2023;SDS011;1016;48.770;9.154;2024-01-11T13:13:21;1195.85;;;999.90;;
2023;SDS011;1016;48.770;9.154;2024-01-11T13:15:52;1167.25;;;999.90;;
2023;SDS011;1016;48.770;9.154;2024-01-11T13:18:18;1135.30;;;999.90;;
2023;SDS011;1016;48.770;9.154;2024-01-11T13:20:44;1140.40;;;999.90;;
2023;SDS011;1016;48.770;9.154;2024-01-11T13:23:16;1143.33;;;999.90;;
2023;SDS011;1016;48.770;9.154;2024-01-11T13:25:46;1131.40;;;999.90;;
2023;SDS011;1016;48.770;9.154;2024-01-11T13:28:14;1118.57;;;999.90;;
2023;SDS011;1016;48.770;9.154;2024-01-11T13:30:40;1150.32;;;999.90;;
2023;SDS011;1016;48.770;9.154;2024-01-11T13:33:08;1131.68;;;999.90;;
2023;SDS011;1016;48.770;9.154;2024-01-11T13:35:37;1149.53;;;999.90;;
2023;SDS011;1016;48.770;9.154;2024-01-11T13:38:03;1140.30;;;999.90;;
2023;SDS011;1016;48.770;9.154;2024-01-11T13:40:30;1157.88;;;999.90;;
2023;SDS011;1016;48.770;9.154;2024-01-11T13:42:56;1155.28;;;999.90;;
2023;SDS011;1016;48.770;9.154;2024-01-11T13:45:23;1165.65;;;999.90;;
2023;SDS011;1016;48.770;9.154;2024-01-11T13:47:49;1148.82;;;999.90;;
2023;SDS011;1016;48.770;9.154;2024-01-11T13:50:16;1125.68;;;999.90;;
2023;SDS011;1016;48.770;9.154;2024-01-11T13:52:43;1146.38;;;999.90;;
2023;SDS011;1016;48.770;9.154;2024-01-11T13:55:10;1129.68;;;999.90;;
2023;SDS011;1016;48.770;9.154;2024-01-11T13:57:37;1116.65;;;999.90;;
2023;SDS011;1016;48.770;9.154;2024-01-11T14:00:03;1120.55;;;999.90;;
2023;SDS011;1016;48.770;9.154;2024-01-11T14:02:36;1114.18;;;999.90;;
2023;SDS011;1016;48.770;9.154;2024-01-11T14:05:05;1130.93;;;999.90;;
2023;SDS011;1016;48.770;9.154;2024-01-11T14:07:35;1113.40;;;999.90;;
2023;SDS011;1016;48.770;9.154;2024-01-11T14:10:00;1109.10;;;999.90;;